createdAt,value
2023-05-20T00:02:13.730Z,13.48
2023-05-20T00:04:44.156Z,13.49
2023-05-20T00:07:13.006Z,13.50
2023-05-20T00:09:41.798Z,13.54
2023-05-20T00:12:11.075Z,13.56
2023-05-20T00:14:39.977Z,13.56
2023-05-20T00:17:08.839Z,13.57
2023-05-20T00:19:37.617Z,13.58
2023-05-20T00:22:08.359Z,13.59
2023-05-20T00:24:37.266Z,13.56
2023-05-20T00:27:06.270Z,13.50
2023-05-20T00:29:35.785Z,13.59
2023-05-20T00:32:04.797Z,13.57
2023-05-20T00:34:33.550Z,13.55
2023-05-20T00:37:02.439Z,13.59
2023-05-20T00:39:32.793Z,13.58
2023-05-20T00:42:03.792Z,13.59
2023-05-20T00:44:32.687Z,13.57
2023-05-20T00:47:03.214Z,13.62
2023-05-20T00:49:32.122Z,13.53
2023-05-20T00:52:01.028Z,13.57
2023-05-20T00:54:30.057Z,13.57
2023-05-20T00:57:03.453Z,13.56
2023-05-20T00:59:32.798Z,13.34
2023-05-20T01:02:02.076Z,13.50
2023-05-20T01:04:32.493Z,13.50
2023-05-20T01:07:04.821Z,13.48
2023-05-20T01:09:35.095Z,13.47
2023-05-20T01:12:13.635Z,13.48
2023-05-20T01:14:50.058Z,13.43
2023-05-20T01:17:22.454Z,13.47
2023-05-20T01:19:54.304Z,13.49
2023-05-20T01:22:28.226Z,13.52
2023-05-20T01:25:00.302Z,13.53
2023-05-20T01:27:30.745Z,13.53
2023-05-20T01:29:59.674Z,13.56
2023-05-20T01:32:34.197Z,13.58
2023-05-20T01:35:04.970Z,13.52
2023-05-20T01:37:38.681Z,13.61
2023-05-20T01:40:10.200Z,13.65
2023-05-20T01:42:40.549Z,13.68
2023-05-20T01:45:10.300Z,13.72
2023-05-20T01:47:40.377Z,13.78
2023-05-20T01:50:10.383Z,13.79
2023-05-20T01:52:40.613Z,13.82
2023-05-20T01:55:10.515Z,13.83
2023-05-20T01:57:39.426Z,13.84
2023-05-20T02:00:10.005Z,13.87
2023-05-20T02:02:47.043Z,13.84
2023-05-20T02:05:16.164Z,13.83
2023-05-20T02:07:46.626Z,13.81
2023-05-20T02:10:15.545Z,13.76
2023-05-20T02:12:44.374Z,13.82
2023-05-20T02:15:13.460Z,13.83
2023-05-20T02:17:45.182Z,13.84
2023-05-20T02:20:16.517Z,13.83
2023-05-20T02:22:46.910Z,13.84
2023-05-20T02:25:16.239Z,13.82
2023-05-20T02:27:46.038Z,13.79
2023-05-20T02:30:16.461Z,13.80
2023-05-20T02:32:45.431Z,13.79
2023-05-20T02:35:14.248Z,13.79
2023-05-20T02:37:44.999Z,13.78
2023-05-20T02:40:15.356Z,13.79
2023-05-20T02:42:44.345Z,13.78
2023-05-20T02:45:13.152Z,13.78
2023-05-20T02:47:42.128Z,13.78
2023-05-20T02:50:12.083Z,13.76
2023-05-20T02:52:42.855Z,13.75
2023-05-20T02:55:12.175Z,13.71
2023-05-20T02:57:42.474Z,13.70
2023-05-20T03:00:13.677Z,13.69
2023-05-20T03:02:42.653Z,13.63
2023-05-20T03:05:12.541Z,13.67
2023-05-20T03:07:41.395Z,13.65
2023-05-20T03:10:11.949Z,13.64
2023-05-20T03:12:43.409Z,13.59
2023-05-20T03:15:12.961Z,13.57
2023-05-20T03:17:41.951Z,13.58
2023-05-20T03:20:12.970Z,13.58
2023-05-20T03:22:43.043Z,13.59
2023-05-20T03:25:12.056Z,13.57
2023-05-20T03:27:43.389Z,13.56
2023-05-20T03:30:12.924Z,13.55
2023-05-20T03:32:42.201Z,13.47
2023-05-20T03:35:11.338Z,13.55
2023-05-20T03:37:40.209Z,13.56
2023-05-20T03:40:10.548Z,13.55
2023-05-20T03:42:42.388Z,13.54
2023-05-20T03:45:12.287Z,13.54
2023-05-20T03:47:49.229Z,13.54
2023-05-20T03:50:19.996Z,13.50
2023-05-20T03:52:48.954Z,13.51
2023-05-20T03:55:20.691Z,13.52
2023-05-20T03:57:51.646Z,13.51
2023-05-20T04:00:20.683Z,13.51
2023-05-20T04:02:51.469Z,13.37
2023-05-20T04:05:21.709Z,13.47
2023-05-20T04:07:51.027Z,13.43
2023-05-20T04:10:23.761Z,13.44
2023-05-20T04:12:55.228Z,13.48
2023-05-20T04:15:25.407Z,13.49
2023-05-20T04:17:57.874Z,13.49
2023-05-20T04:20:27.170Z,13.47
2023-05-20T04:22:58.956Z,13.50
2023-05-20T04:25:27.858Z,13.51
2023-05-20T04:28:00.163Z,13.55
2023-05-20T04:30:29.471Z,13.64
2023-05-20T04:32:58.426Z,13.76
2023-05-20T04:35:27.536Z,13.90
2023-05-20T04:37:59.809Z,14.02
2023-05-20T04:40:28.979Z,14.17
2023-05-20T04:43:01.515Z,14.35
2023-05-20T04:45:31.877Z,14.51
2023-05-20T04:48:00.893Z,14.63
2023-05-20T04:50:30.082Z,14.80
2023-05-20T04:52:59.167Z,14.88
2023-05-20T04:55:31.251Z,15.03
2023-05-20T04:58:02.383Z,15.17
2023-05-20T05:00:31.673Z,15.32
2023-05-20T05:03:01.447Z,15.44
2023-05-20T05:05:30.375Z,15.56
2023-05-20T05:07:59.441Z,15.68
2023-05-20T05:10:28.371Z,15.82
2023-05-20T05:12:57.139Z,15.95
2023-05-20T05:15:27.660Z,16.07
2023-05-20T05:17:56.878Z,16.23
2023-05-20T05:20:25.776Z,16.35
2023-05-20T05:22:54.640Z,16.43
2023-05-20T05:25:23.591Z,16.54
2023-05-20T05:27:52.401Z,16.56
2023-05-20T05:30:23.531Z,16.72
2023-05-20T05:32:54.046Z,16.82
2023-05-20T05:35:24.174Z,16.92
2023-05-20T05:37:53.011Z,17.03
2023-05-20T06:56:14.594Z,19.41
2023-05-20T06:58:43.557Z,19.58
2023-05-20T07:01:12.362Z,19.75
2023-05-20T07:03:43.038Z,19.86
2023-05-20T07:06:13.148Z,19.95
2023-05-20T07:08:41.984Z,20.06
2023-05-20T07:11:11.820Z,20.22
2023-05-20T07:13:42.206Z,20.40
2023-05-20T07:16:11.413Z,20.50
2023-05-20T07:18:44.299Z,20.57
2023-05-20T07:21:13.611Z,20.64
2023-05-20T07:24:08.851Z,20.75
2023-05-20T07:26:43.507Z,20.86
2023-05-20T07:29:15.458Z,21.03
2023-05-20T07:31:44.426Z,21.08
2023-05-20T07:34:13.186Z,21.12
2023-05-20T07:36:44.054Z,21.13
2023-05-20T07:39:15.308Z,21.19
2023-05-20T07:41:44.738Z,21.29
2023-05-20T07:44:16.170Z,21.51
2023-05-20T07:46:49.891Z,21.70
2023-05-20T07:49:21.801Z,21.89
2023-05-20T07:51:51.016Z,22.08
2023-05-20T07:54:19.829Z,22.24
2023-05-20T07:56:52.147Z,22.35
2023-05-20T07:59:22.858Z,22.48
2023-05-20T08:01:52.672Z,22.61
2023-05-20T08:04:23.449Z,22.67
2023-05-20T08:06:54.697Z,22.88
2023-05-20T08:09:33.438Z,23.06
2023-05-20T08:12:02.741Z,23.19
2023-05-20T08:14:33.037Z,23.22
2023-05-20T08:17:01.896Z,23.23
2023-05-20T08:19:30.829Z,23.07
2023-05-20T08:21:59.701Z,23.42
2023-05-20T08:24:28.839Z,23.50
2023-05-20T08:26:58.353Z,23.61
2023-05-20T08:29:29.241Z,23.70
2023-05-20T08:32:01.360Z,23.75
2023-05-20T08:34:30.914Z,23.68
2023-05-20T08:36:59.797Z,23.75
2023-05-20T08:39:28.665Z,23.78
2023-05-20T08:42:00.281Z,23.91
2023-05-20T08:44:31.021Z,23.94
2023-05-20T08:47:04.087Z,24.14
2023-05-20T08:49:34.061Z,24.37
2023-05-20T08:52:03.201Z,24.42
2023-05-20T08:54:45.638Z,24.57
2023-05-20T08:57:15.371Z,24.64
2023-05-20T08:59:45.864Z,24.70
2023-05-20T09:02:16.318Z,24.82
2023-05-20T09:04:45.251Z,24.95
2023-05-20T09:07:14.123Z,24.85
2023-05-20T09:09:43.054Z,24.93
2023-05-20T09:12:11.827Z,24.98
2023-05-20T09:14:40.628Z,25.18
2023-05-20T09:17:09.491Z,25.29
2023-05-20T09:19:39.963Z,25.42
2023-05-20T09:22:09.127Z,25.46
2023-05-20T09:24:37.906Z,25.36
2023-05-20T09:27:07.260Z,25.69
2023-05-20T09:29:35.718Z,25.83
2023-05-20T09:32:06.045Z,25.98
2023-05-20T09:34:34.964Z,25.96
2023-05-20T09:37:07.571Z,25.98
2023-05-20T09:39:58.115Z,25.99
2023-05-20T09:42:30.103Z,25.88
2023-05-20T09:45:00.551Z,25.78
2023-05-20T09:47:29.674Z,25.70
2023-05-20T09:49:59.621Z,25.80
2023-05-20T09:52:30.272Z,25.79
2023-05-20T09:55:00.514Z,25.87
2023-05-20T09:57:32.074Z,25.99
2023-05-20T10:00:01.063Z,26.18
2023-05-20T10:02:30.224Z,26.33
2023-05-20T10:05:02.111Z,26.50
2023-05-20T10:08:04.148Z,26.34
2023-05-20T10:10:47.903Z,26.13
2023-05-20T10:13:43.121Z,26.36
2023-05-20T10:16:30.702Z,26.34
2023-05-20T10:19:08.702Z,26.44
2023-05-20T10:21:37.710Z,26.52
2023-05-20T10:24:09.842Z,26.47
2023-05-20T10:26:41.227Z,26.47
2023-05-20T10:29:17.186Z,26.44
2023-05-20T10:31:46.877Z,26.55
2023-05-20T10:34:19.003Z,26.64
2023-05-20T10:36:49.751Z,26.63
2023-05-20T10:39:19.082Z,26.45
2023-05-20T10:41:49.146Z,26.60
2023-05-20T10:44:18.047Z,26.74
2023-05-20T10:47:03.873Z,26.61
2023-05-20T10:49:36.394Z,26.74
2023-05-20T10:52:05.579Z,27.02
2023-05-20T10:54:37.625Z,27.12
2023-05-20T10:57:10.689Z,26.96
2023-05-20T10:59:39.734Z,26.93
2023-05-20T11:02:12.689Z,27.01
2023-05-20T11:04:44.492Z,27.01
2023-05-20T11:07:13.592Z,26.95
2023-05-20T11:09:51.209Z,26.94
2023-05-20T11:12:22.955Z,26.93
2023-05-20T11:14:52.097Z,27.21
2023-05-20T11:17:22.157Z,27.25
2023-05-20T11:19:52.016Z,26.96
2023-05-20T11:22:20.840Z,26.89
2023-05-20T11:24:49.705Z,27.07
2023-05-20T11:27:18.465Z,27.23
2023-05-20T11:29:51.972Z,27.38
2023-05-20T11:32:22.411Z,27.51
2023-05-20T11:34:53.958Z,27.44
2023-05-20T11:37:23.861Z,27.56
2023-05-20T11:40:08.101Z,27.59
2023-05-20T11:42:37.789Z,27.79
2023-05-20T11:45:14.847Z,27.73
2023-05-20T11:47:43.891Z,27.76
2023-05-20T11:50:18.682Z,27.81
2023-05-20T11:52:47.582Z,27.62
2023-05-20T11:55:16.679Z,27.70
2023-05-20T11:57:45.544Z,27.79
2023-05-20T12:00:16.068Z,28.01
2023-05-20T12:02:45.632Z,27.83
2023-05-20T12:05:14.597Z,27.81
2023-05-20T12:07:43.916Z,27.90
2023-05-20T12:10:14.063Z,27.82
2023-05-20T12:12:44.206Z,27.56
2023-05-20T12:15:13.546Z,27.37
2023-05-20T12:17:51.456Z,27.65
2023-05-20T12:20:23.107Z,27.46
2023-05-20T12:22:52.272Z,27.48
2023-05-20T12:25:22.031Z,27.72
2023-05-20T12:27:51.396Z,28.03
2023-05-20T12:30:22.481Z,28.06
2023-05-20T12:32:53.740Z,28.17
2023-05-20T12:35:39.935Z,28.42
2023-05-20T12:38:09.488Z,28.55
2023-05-20T12:40:38.870Z,28.54
2023-05-20T12:43:07.848Z,28.43
2023-05-20T12:45:36.743Z,28.36
2023-05-20T12:48:08.276Z,28.33
2023-05-20T12:50:37.536Z,28.12
2023-05-20T12:53:06.393Z,27.80
2023-05-20T12:55:35.541Z,27.54
2023-05-20T12:58:04.297Z,27.42
2023-05-20T13:00:33.366Z,27.54
2023-05-20T13:03:02.313Z,27.89
2023-05-20T13:05:32.667Z,27.88
2023-05-20T13:08:01.492Z,27.69
2023-05-20T13:10:30.337Z,27.46
2023-05-20T13:12:59.837Z,27.26
2023-05-20T13:15:28.598Z,27.03
2023-05-20T13:17:57.697Z,26.93
2023-05-20T13:20:26.686Z,27.07
2023-05-20T13:22:57.150Z,27.20
2023-05-20T13:25:26.066Z,27.17
2023-05-20T13:27:54.860Z,27.10
2023-05-20T13:30:28.814Z,26.84
2023-05-20T13:32:57.809Z,26.63
2023-05-20T13:35:26.783Z,26.70
2023-05-20T13:37:57.082Z,26.79
2023-05-20T13:40:26.641Z,27.00
2023-05-20T13:42:55.864Z,27.15
2023-05-20T13:45:24.623Z,27.15
2023-05-20T13:47:53.536Z,27.11
2023-05-20T13:50:22.643Z,27.11
2023-05-20T13:52:51.913Z,27.13
2023-05-20T13:55:24.041Z,27.24
2023-05-20T13:57:54.532Z,27.36
2023-05-20T14:00:23.434Z,27.31
2023-05-20T14:02:52.742Z,27.32
2023-05-20T14:05:21.897Z,27.36
2023-05-20T14:07:50.902Z,27.19
2023-05-20T14:10:19.697Z,27.12
2023-05-20T14:12:49.984Z,27.16
2023-05-20T14:15:18.894Z,27.18
2023-05-20T14:17:48.056Z,27.22
2023-05-20T14:20:17.464Z,27.30
2023-05-20T14:22:45.875Z,27.28
2023-05-20T14:25:14.710Z,27.22
2023-05-20T14:27:43.412Z,27.16
2023-05-20T14:30:14.503Z,27.11
2023-05-20T14:32:43.379Z,27.05
2023-05-20T14:35:12.130Z,26.94
2023-05-20T14:37:40.936Z,26.90
2023-05-20T14:40:10.789Z,26.91
2023-05-20T14:42:40.312Z,26.98
2023-05-20T14:45:10.180Z,27.00
2023-05-20T14:47:41.415Z,27.07
2023-05-20T14:50:10.995Z,27.12
2023-05-20T14:52:39.803Z,27.13
2023-05-20T14:55:09.453Z,27.00
2023-05-20T14:57:38.444Z,26.95
2023-05-20T15:00:08.969Z,26.92
2023-05-20T15:02:39.673Z,26.97
2023-05-20T15:05:09.221Z,26.92
2023-05-20T15:07:38.109Z,26.81
2023-05-20T15:10:08.003Z,26.80
2023-05-20T15:12:36.981Z,26.77
2023-05-20T15:15:10.405Z,26.71
2023-05-20T15:17:40.772Z,26.72
2023-05-20T15:20:10.816Z,26.69
2023-05-20T15:22:39.618Z,26.69
2023-05-20T15:25:09.004Z,26.60
2023-05-20T15:27:37.877Z,26.58
2023-05-20T15:30:07.810Z,26.57
2023-05-20T15:32:36.978Z,26.58
2023-05-20T15:35:08.423Z,26.53
2023-05-20T15:37:37.245Z,26.50
2023-05-20T15:40:06.838Z,26.41
2023-05-20T15:42:36.062Z,26.35
2023-05-20T15:45:04.998Z,26.24
2023-05-20T15:47:33.955Z,26.33
2023-05-20T15:50:05.387Z,26.28
2023-05-20T15:52:35.913Z,26.35
2023-05-20T15:55:05.219Z,26.25
2023-05-20T15:57:34.177Z,26.24
2023-05-20T16:00:06.817Z,26.16
2023-05-20T16:02:36.624Z,26.06
2023-05-20T16:05:06.833Z,25.97
2023-05-20T16:07:37.012Z,25.95
2023-05-20T16:10:06.941Z,25.92
2023-05-20T16:12:35.738Z,25.85
2023-05-20T16:15:08.363Z,25.75
2023-05-20T16:17:37.176Z,25.63
2023-05-20T16:20:08.015Z,25.51
2023-05-20T16:22:38.434Z,25.44
2023-05-20T16:25:07.879Z,25.42
2023-05-20T16:27:36.317Z,25.38
2023-05-20T16:30:05.629Z,25.29
2023-05-20T16:32:34.171Z,25.25
2023-05-20T16:35:03.348Z,25.25
2023-05-20T16:37:32.608Z,25.19
2023-05-20T16:40:02.580Z,25.14
2023-05-20T16:42:31.426Z,25.11
2023-05-20T16:45:00.234Z,25.02
2023-05-20T16:47:29.321Z,24.97
2023-05-20T16:49:58.148Z,24.91
2023-05-20T16:52:27.246Z,24.90
2023-05-20T16:54:57.478Z,24.77
2023-05-20T16:57:27.923Z,24.62
2023-05-20T16:59:56.899Z,24.58
2023-05-20T17:02:25.810Z,24.49
2023-05-20T17:04:55.888Z,24.39
2023-05-20T17:07:24.572Z,24.30
2023-05-20T17:09:56.171Z,24.34
2023-05-20T17:12:25.231Z,24.39
2023-05-20T17:14:55.646Z,24.43
2023-05-20T17:17:25.086Z,24.42
2023-05-20T17:19:53.934Z,24.41
2023-05-20T17:22:22.841Z,24.35
2023-05-20T17:24:51.979Z,24.28
2023-05-20T17:27:20.955Z,24.24
2023-05-20T17:29:49.964Z,24.15
2023-05-20T17:32:20.266Z,24.16
2023-05-20T17:34:49.062Z,24.14
2023-05-20T17:37:17.977Z,24.07
2023-05-20T17:39:46.818Z,24.01
2023-05-20T17:42:15.782Z,23.96
2023-05-20T17:44:44.571Z,23.86
2023-05-20T17:47:13.257Z,23.74
2023-05-20T17:49:43.482Z,23.65
2023-05-20T17:52:12.295Z,23.58
2023-05-20T17:54:41.107Z,23.48
2023-05-20T17:57:09.856Z,23.34
2023-05-20T17:59:41.713Z,23.16
2023-05-20T18:02:10.643Z,23.08
2023-05-20T18:04:39.472Z,22.95
2023-05-20T18:07:09.943Z,22.80
2023-05-20T18:09:39.581Z,22.59
2023-05-20T18:12:09.434Z,22.40
2023-05-20T18:14:38.329Z,22.20
2023-05-20T18:17:07.084Z,22.01
2023-05-20T18:19:35.897Z,21.87
2023-05-20T18:22:07.558Z,21.58
2023-05-20T18:24:37.896Z,21.42
2023-05-20T18:27:07.214Z,21.36
2023-05-20T18:29:36.013Z,21.33
2023-05-20T18:32:05.046Z,21.26
2023-05-20T18:34:34.974Z,21.12
2023-05-20T18:37:04.092Z,21.04
2023-05-20T18:39:32.907Z,20.98
2023-05-20T18:42:03.122Z,20.93
2023-05-20T18:44:32.090Z,20.83
2023-05-20T18:47:00.821Z,20.77
2023-05-20T18:49:29.776Z,20.69
2023-05-20T18:51:58.842Z,20.61
2023-05-20T18:54:27.700Z,20.47
2023-05-20T18:56:56.845Z,20.39
2023-05-20T18:59:27.095Z,20.35
2023-05-20T19:01:55.920Z,20.32
2023-05-20T19:04:25.232Z,20.29
2023-05-20T19:06:54.399Z,20.22
2023-05-20T19:09:23.263Z,20.18
2023-05-20T19:11:56.881Z,20.08
2023-05-20T19:14:27.300Z,19.96
2023-05-20T19:16:56.511Z,19.88
2023-05-20T19:19:25.470Z,19.83
2023-05-20T19:21:54.298Z,19.79
2023-05-20T19:24:23.495Z,19.77
2023-05-20T19:26:52.951Z,19.71
2023-05-20T19:29:21.872Z,19.66
2023-05-20T19:31:52.942Z,19.57
2023-05-20T19:34:21.778Z,19.48
2023-05-20T19:36:50.738Z,19.37
2023-05-20T19:39:19.625Z,19.33
2023-05-20T19:41:48.848Z,19.30
2023-05-20T19:44:19.327Z,19.29
2023-05-20T19:46:49.020Z,19.24
2023-05-20T19:49:18.902Z,19.15
2023-05-20T19:51:48.207Z,19.06
2023-05-20T19:54:17.023Z,19.03
2023-05-20T19:56:46.271Z,18.99
2023-05-20T19:59:15.117Z,18.97
2023-05-20T20:01:44.565Z,18.99
2023-05-20T20:04:14.041Z,19.00
2023-05-20T20:06:44.387Z,18.97
2023-05-20T20:09:13.313Z,19.01
2023-05-20T20:11:42.011Z,18.97
2023-05-20T20:14:10.954Z,18.94
2023-05-20T20:16:39.711Z,18.92
2023-05-20T20:19:08.622Z,18.86
2023-05-20T20:21:37.519Z,18.83
2023-05-20T20:24:08.161Z,18.78
2023-05-20T20:26:37.147Z,18.79
2023-05-20T20:29:05.973Z,18.74
2023-05-20T20:31:35.054Z,18.68
2023-05-20T20:34:03.866Z,18.66
2023-05-20T20:36:35.297Z,18.68
2023-05-20T20:39:05.569Z,18.70
2023-05-20T20:41:36.019Z,18.74
2023-05-20T20:44:04.813Z,18.74
2023-05-20T20:46:33.589Z,18.74
2023-05-20T20:49:02.540Z,18.80
2023-05-20T20:51:31.316Z,18.80
2023-05-20T20:54:00.226Z,18.76
2023-05-20T20:56:29.844Z,18.73
2023-05-20T20:59:00.565Z,18.71
2023-05-20T21:01:29.985Z,18.72
2023-05-20T21:03:58.967Z,18.72
2023-05-20T21:06:27.696Z,18.71
2023-05-20T21:08:58.364Z,18.71
2023-05-20T21:11:28.349Z,18.70
2023-05-20T21:13:57.402Z,18.73
2023-05-20T21:16:27.625Z,18.71
2023-05-20T21:18:56.585Z,18.73
2023-05-20T21:21:25.452Z,18.74
2023-05-20T21:23:54.748Z,18.76
2023-05-20T21:26:25.125Z,18.82
2023-05-20T21:28:54.101Z,18.83
2023-05-20T21:31:22.995Z,18.81
2023-05-20T21:33:53.267Z,18.83
2023-05-20T21:36:23.305Z,18.84
2023-05-20T21:38:52.457Z,18.82
2023-05-20T21:41:21.591Z,18.79
2023-05-20T21:43:50.501Z,18.76
2023-05-20T21:46:19.348Z,18.78
2023-05-20T21:48:48.190Z,18.73
2023-05-20T21:51:18.511Z,18.74
2023-05-20T21:53:47.431Z,18.75
2023-05-20T21:56:16.316Z,18.73
2023-05-20T21:58:45.122Z,18.67
2023-05-20T22:01:13.914Z,18.61
2023-05-20T22:03:48.769Z,18.59
2023-05-20T22:06:21.715Z,18.53
2023-05-20T22:08:50.686Z,18.50
2023-05-20T22:11:19.952Z,18.46
2023-05-20T22:13:49.050Z,18.37
2023-05-20T22:16:17.928Z,18.35
2023-05-20T22:18:49.980Z,18.22
2023-05-20T22:21:21.701Z,18.18
2023-05-20T22:23:50.702Z,18.17
2023-05-20T22:26:19.935Z,18.17
2023-05-20T22:28:49.055Z,18.15
2023-05-20T22:31:18.033Z,18.05
2023-05-20T22:33:46.964Z,17.99
2023-05-20T22:36:15.914Z,17.95
2023-05-20T22:38:46.271Z,17.93
2023-05-20T22:41:15.090Z,17.88
2023-05-20T22:43:43.956Z,17.82
2023-05-20T22:46:13.469Z,17.69
2023-05-20T22:48:42.461Z,17.70
2023-05-20T22:51:11.368Z,17.69
2023-05-20T22:53:40.396Z,17.69
2023-05-20T22:56:11.934Z,17.68
2023-05-20T22:58:40.822Z,17.63
2023-05-20T23:01:09.653Z,17.66
2023-05-20T23:03:40.054Z,17.62
2023-05-20T23:06:08.891Z,17.66
2023-05-20T23:08:37.539Z,17.60
2023-05-20T23:11:06.961Z,17.58
2023-05-20T23:13:37.432Z,17.49
2023-05-20T23:16:07.859Z,17.44
2023-05-20T23:18:36.691Z,17.38
2023-05-20T23:21:06.062Z,17.33
2023-05-20T23:23:35.350Z,17.29
2023-05-20T23:26:05.514Z,17.25
2023-05-20T23:28:34.488Z,17.21
2023-05-20T23:31:04.816Z,17.15
2023-05-20T23:33:34.080Z,17.15
2023-05-20T23:36:03.048Z,17.14
2023-05-20T23:38:32.346Z,17.17
2023-05-20T23:41:01.250Z,17.14
2023-05-20T23:43:30.018Z,17.09
2023-05-20T23:45:58.843Z,17.06
2023-05-20T23:48:29.803Z,17.05
2023-05-20T23:50:58.735Z,17.04
2023-05-20T23:53:27.854Z,17.01
2023-05-20T23:55:56.681Z,17.00
2023-05-20T23:58:25.650Z,16.95
